EW4727 Weather Reports


time (UTC)temp
C
wind
direction
speed
KPH
gust
KPH
rain 1hr
cm
rain 24hr
cm
rain mn
cm
humidity
%
barometer
mb
20180421190704 16 172 0.0 0.0 0.00 0.13 0.13 90 1014.8
20180421185705 17 172 0.0 0.0 0.00 0.13 0.13 90 1014.7
20180421182705 17 172 0.0 0.0 0.00 0.13 0.13 89 1014.5
20180421181703 17 172 0.0 0.0 0.00 0.13 0.13 88 1014.2
20180421180704 17 172 0.0 0.0 0.00 0.13 0.13 88 1014.3
20180421175703 17 172 0.0 9.7 0.00 0.13 0.13 87 1014.3
20180421174704 17 171 1.6 11.3 0.00 0.13 0.13 87 1014.4
20180421173704 17 165 1.6 11.3 0.00 0.13 0.13 87 1014.2
20180421172708 17 149 1.6 11.3 0.00 0.13 0.13 88 1013.9
20180421171704 17 144 3.2 14.5 0.00 0.13 0.13 88 1013.9
20180421170704 17 127 4.8 19.3 0.00 0.13 0.13 88 1013.7
20180421165704 17 92 4.8 16.1 0.00 0.13 0.13 89 1013.2
20180421164704 17 86 8.0 24.1 0.00 0.13 0.13 90 1013.2
20180421163704 16 85 11.3 29.0 0.00 0.13 0.13 92 1013.2
20180421160704 16 80 9.7 20.9 0.00 0.13 0.13 96 1013.4
20180421155705 16 70 14.5 24.1 0.00 0.13 0.13 97 1013.6
20180421154705 16 65 9.7 20.9 0.00 0.13 0.13 99 1014.1
20180421153704 15 36 3.2 14.5 0.03 0.13 0.13 99 1014.4
20180421152704 15 80 4.8 14.5 0.03 0.13 0.13 99 1014.6
20180421151705 15 75 4.8 14.5 0.03 0.13 0.13 99 1014.9
20180421150704 15 80 6.4 14.5 0.05 0.13 0.13 99 1015.3
20180421145704 15 59 3.2 11.3 0.05 0.13 0.13 99 1015.4
20180421144704 15 88 0.0 11.3 0.10 0.13 0.13 99 1015.5
20180421143704 15 144 0.0 0.0 0.10 0.10 0.10 99 1015.9
20180421142705 15 144 0.0 8.0 0.10 0.10 0.10 99 1015.9
20180421140715 15 149 0.0 0.0 0.10 0.10 0.10 98 1016.4
20180421135710 15 149 0.0 9.7 0.08 0.08 0.08 97 1016.4
20180421134704 15 146 1.6 11.3 0.05 0.05 0.05 96 1016.5
20180421133704 15 181 3.2 16.1 0.03 0.03 0.03 96 1016.5
20180421132705 16 178 3.2 16.1 0.00 0.00 0.00 95 1016.6
20180421131704 16 144 1.6 24.1 0.00 0.00 0.00 93 1016.6
20180421130704 16 169 1.6 19.3 0.00 0.00 0.00 92 1016.6
20180421125704 16 193 4.8 19.3 0.00 0.00 0.00 91 1016.5
20180421124704 16 200 4.8 22.5 0.00 0.00 0.00 88 1016.4
20180421123704 17 160 9.7 32.2 0.00 0.00 0.00 84 1016.2
20180421122704 18 172 4.8 29.0 0.00 0.00 0.00 81 1016.0
20180421121704 19 152 9.7 24.1 0.00 0.00 0.00 76 1015.4
20180421114704 20 119 1.6 12.9 0.00 0.00 0.00 67 1014.0
20180421113704 20 160 6.4 20.9 0.00 0.00 0.00 67 1013.8
20180421112704 20 133 8.0 19.3 0.00 0.00 0.00 67 1013.6
20180421111704 20 103 11.3 22.5 0.00 0.00 0.00 67 1013.4
20180421110704 20 101 9.7 25.7 0.00 0.00 0.00 67 1013.5
20180421105704 20 93 6.4 19.3 0.00 0.00 0.00 68 1013.5
20180421104704 20 96 6.4 20.9 0.00 0.00 0.00 69 1013.5
20180421103705 20 100 9.7 20.9 0.00 0.00 0.00 69 1013.3
20180421102704 19 84 6.4 16.1 0.00 0.00 0.00 70 1013.2
20180421101705 19 100 1.6 20.9 0.00 0.00 0.00 71 1013.4
20180421100704 19 110 4.8 14.5 0.00 0.00 0.00 71 1013.5
20180421093704 18 110 8.0 14.5 0.00 0.00 0.00 73 1013.7
20180421092704 18 69 0.0 4.8 0.00 0.00 0.00 76 1013.8
20180421091704 17 150 1.6 4.8 0.00 0.00 0.00 78 1013.7
20180421090704 17 160 0.0 4.8 0.00 0.00 0.00 79 1013.7
20180421085704 17 161 1.6 4.8 0.00 0.00 0.00 79 1013.7
20180421084704 17 161 0.0 3.2 0.00 0.00 0.00 80 1013.8
20180421083704 16 161 0.0 0.0 0.00 0.00 0.00 82 1013.7
20180421082705 16 165 0.0 0.0 0.00 0.00 0.00 85 1013.8
20180421081704 15 165 0.0 0.0 0.00 0.00 0.00 87 1013.9
20180421080704 15 165 0.0 0.0 0.00 0.00 0.00 89 1014.0
20180421075704 15 165 0.0 0.0 0.00 0.00 0.00 90 1014.1
20180421074704 15 165 0.0 0.0 0.00 0.00 0.00 90 1014.2
20180421073705 15 165 0.0 11.3 0.00 0.00 0.00 88 1014.3
20180421070704 16 167 4.8 12.9 0.00 0.00 0.00 82 1013.9
20180421065704 15 107 0.0 0.0 0.00 0.00 0.00 82 1013.8
20180421064704 15 107 0.0 0.0 0.00 0.00 0.00 82 1013.5
20180421063704 15 107 0.0 9.7 0.00 0.00 0.00 82 1013.7
20180421062704 16 105 0.0 4.8 0.00 0.00 0.00 81 1013.7
20180421061704 16 105 1.6 4.8 0.00 0.00 0.00 81 1013.6
20180421060704 16 100 3.2 4.8 0.00 0.00 0.00 80 1013.5
20180421055704 16 79 0.0 1.6 0.00 0.00 0.00 80 1013.4
20180421054709 16 78 0.0 8.0 0.00 0.00 0.00 80 1013.4
20180421053704 16 79 0.0 4.8 0.00 0.00 0.00 81 1013.3
20180421052704 16 78 0.0 0.0 0.00 0.00 0.00 81 1013.3
20180421051704 16 78 1.6 12.9 0.00 0.00 0.00 82 1013.3
20180421044714 15 147 0.0 3.2 0.00 0.00 0.00 86 1013.5
20180421043704 15 147 0.0 4.8 0.00 0.00 0.00 86 1013.5
20180421042704 15 148 0.0 3.2 0.00 0.00 0.00 86 1013.4
20180421041704 15 148 1.6 4.8 0.00 0.00 0.00 86 1013.3
20180421040704 16 155 0.0 0.0 0.00 0.00 0.00 86 1013.4
20180421035704 16 155 0.0 0.0 0.00 0.00 0.00 85 1013.3
20180421034704 16 155 0.0 0.0 0.00 0.00 0.00 85 1013.5
20180421033704 16 155 0.0 0.0 0.00 0.00 0.00 86 1013.6
20180421032704 16 155 0.0 0.0 0.00 0.00 0.00 87 1013.6
20180421031704 16 155 0.0 0.0 0.00 0.00 0.00 87 1013.7
20180421030704 16 155 0.0 0.0 0.00 0.00 0.00 87 1013.7
20180421025706 16 155 1.6 3.2 0.00 0.00 0.00 87 1013.8
20180421024705 16 155 0.0 0.0 0.00 0.00 0.00 87 1013.8
20180421021709 16 155 0.0 0.0 0.00 0.00 0.00 91 1013.9
20180421020704 15 155 0.0 0.0 0.00 0.00 0.00 94 1013.9
20180421015705 15 155 0.0 3.2 0.00 0.00 0.00 95 1013.9
20180421014704 15 155 0.0 0.0 0.00 0.00 0.00 96 1013.8
20180421013704 15 155 0.0 0.0 0.00 0.00 0.00 95 1013.7
20180421012704 15 155 0.0 0.0 0.00 0.00 0.00 95 1013.6
20180421011705 15 155 0.0 29.0 0.00 0.00 0.00 95 1013.7
20180421010704 15 155 0.0 0.0 0.00 0.00 0.00 94 1013.7
20180421005707 15 155 0.0 0.0 0.00 0.00 0.00 94 1013.7
20180421004704 15 155 0.0 0.0 0.00 0.00 0.00 94 1013.9
20180421003704 15 155 0.0 0.0 0.00 0.00 0.00 94 1013.9
20180421002705 15 155 0.0 0.0 0.00 0.00 0.00 94 1014.0
20180421001704 16 155 0.0 0.0 0.00 0.00 0.00 94 1014.2
20180420234709 16 155 0.0 1.6 0.00 0.00 0.00 93 1014.2
20180420233705 16 155 0.0 0.0 0.00 0.00 0.00 93 1014.3
20180420232704 16 155 0.0 3.2 0.00 0.00 0.00 93 1014.4
20180420231705 16 155 0.0 0.0 0.00 0.00 0.00 94 1014.4
20180420230705 16 155 0.0 0.0 0.00 0.00 0.00 94 1014.3
20180420225705 16 155 0.0 0.0 0.00 0.00 0.00 94 1014.3
20180420224705 16 155 0.0 0.0 0.00 0.00 0.00 94 1014.3
20180420223705 16 155 0.0 0.0 0.00 0.00 0.00 94 1014.3
20180420222705 15 155 0.0 0.0 0.00 0.00 0.00 94 1014.4
20180420221704 15 155 0.0 4.8 0.00 0.00 0.00 93 1014.4
20180420215715 16 155 0.0 4.8 0.00 0.00 0.00 92 1014.6
20180420214712 16 155 0.0 9.7 0.00 0.00 0.00 91 1014.6
20180420213704 16 155 0.0 9.7 0.00 0.00 0.00 90 1014.5
20180420212704 16 156 1.6 11.3 0.00 0.00 0.00 89 1014.5
20180420211704 17 150 1.6 12.9 0.00 0.00 0.00 88 1014.4
20180420210704 17 153 3.2 12.9 0.00 0.00 0.00 88 1014.3
20180420205705 17 156 3.2 14.5 0.00 0.00 0.00 88 1014.3
20180420204704 17 161 0.0 8.0 0.00 0.00 0.00 87 1014.2
20180420203705 17 211 0.0 0.0 0.00 0.00 0.00 87 1014.1
20180420202704 17 211 1.6 4.8 0.00 0.00 0.00 87 1013.9
20180420201704 17 211 1.6 4.8 0.00 0.00 0.00 86 1013.9
20180420200704 17 217 0.0 0.0 0.00 0.00 0.00 85 1013.7
20180420195704 17 217 0.0 0.0 0.00 0.00 0.00 85 1013.8
20180420194705 17 218 0.0 12.9 0.00 0.00 0.00 84 1013.6
20180420191704 19 229 0.0 8.0 0.00 0.00 0.00 77 1013.3